<?xml version="1.0" encoding="UTF-8" standalone="no" ?>
<gpx xmlns="http://www.topografix.com/GPX/1/1" xmlns:xsi="http://www.w3.org/2001/XMLSchema-instance" xsi:schemaLocation="http://www.topografix.com/GPX/1/1 http://www.topografix.com/GPX/1/1/gpx.xsd" version="1.1" creator="VisuGPX - https://www.visugpx.com">
  <metadata>
    <name>luzech 6 descentes</name>
    <desc><![CDATA[parcours typé enduro avec de belles descentes]]></desc>
  </metadata>
  <trk>
    <name><![CDATA[2014-04-01-08-18-57]]></name>
    <trkseg>
      <trkpt lat="44.43486" lon="1.32394">
        <ele>304.211</ele>
        <time>2014-04-01T11:46:52Z</time>
      </trkpt>
      <trkpt lat="44.43481" lon="1.32389">
        <ele>303.001</ele>
        <time>2014-04-01T11:46:54Z</time>
      </trkpt>
      <trkpt lat="44.43481" lon="1.32381">
        <ele>301.653</ele>
        <time>2014-04-01T11:46:58Z</time>
      </trkpt>
      <trkpt lat="44.43493" lon="1.32363">
        <ele>300.082</ele>
        <time>2014-04-01T11:47:03Z</time>
      </trkpt>
      <trkpt lat="44.43511" lon="1.32337">
        <ele>299.454</ele>
        <time>2014-04-01T11:47:08Z</time>
      </trkpt>
      <trkpt lat="44.43524" lon="1.32316">
        <ele>300.545</ele>
        <time>2014-04-01T11:47:13Z</time>
      </trkpt>
      <trkpt lat="44.43532" lon="1.32301">
        <ele>301.154</ele>
        <time>2014-04-01T11:47:17Z</time>
      </trkpt>
      <trkpt lat="44.43538" lon="1.32277">
        <ele>301.344</ele>
        <time>2014-04-01T11:47:22Z</time>
      </trkpt>
      <trkpt lat="44.43536" lon="1.32253">
        <ele>300.713</ele>
        <time>2014-04-01T11:47:26Z</time>
      </trkpt>
      <trkpt lat="44.43532" lon="1.3224">
        <ele>299.492</ele>
        <time>2014-04-01T11:47:29Z</time>
      </trkpt>
      <trkpt lat="44.43529" lon="1.32226">
        <ele>298.012</ele>
        <time>2014-04-01T11:47:32Z</time>
      </trkpt>
      <trkpt lat="44.43534" lon="1.32213">
        <ele>298.504</ele>
        <time>2014-04-01T11:47:35Z</time>
      </trkpt>
      <trkpt lat="44.43536" lon="1.3221">
        <ele>298.804</ele>
        <time>2014-04-01T11:47:36Z</time>
      </trkpt>
      <trkpt lat="44.43539" lon="1.32198">
        <ele>298.964</ele>
        <time>2014-04-01T11:47:39Z</time>
      </trkpt>
      <trkpt lat="44.43536" lon="1.32177">
        <ele>297.993</ele>
        <time>2014-04-01T11:47:43Z</time>
      </trkpt>
      <trkpt lat="44.43536" lon="1.32156">
        <ele>297.484</ele>
        <time>2014-04-01T11:47:47Z</time>
      </trkpt>
      <trkpt lat="44.43536" lon="1.32125">
        <ele>296.482</ele>
        <time>2014-04-01T11:47:53Z</time>
      </trkpt>
      <trkpt lat="44.43526" lon="1.32113">
        <ele>293.91</ele>
        <time>2014-04-01T11:47:56Z</time>
      </trkpt>
      <trkpt lat="44.43525" lon="1.32099">
        <ele>293.113</ele>
        <time>2014-04-01T11:47:59Z</time>
      </trkpt>
      <trkpt lat="44.43533" lon="1.32071">
        <ele>293.083</ele>
        <time>2014-04-01T11:48:05Z</time>
      </trkpt>
      <trkpt lat="44.43541" lon="1.32053">
        <ele>293.444</ele>
        <time>2014-04-01T11:48:09Z</time>
      </trkpt>
      <trkpt lat="44.43547" lon="1.32052">
        <ele>294.155</ele>
        <time>2014-04-01T11:48:11Z</time>
      </trkpt>
      <trkpt lat="44.43566" lon="1.32048">
        <ele>295.854</ele>
        <time>2014-04-01T11:48:19Z</time>
      </trkpt>
      <trkpt lat="44.43574" lon="1.32055">
        <ele>297.465</ele>
        <time>2014-04-01T11:48:24Z</time>
      </trkpt>
      <trkpt lat="44.43581" lon="1.32063">
        <ele>299.274</ele>
        <time>2014-04-01T11:48:30Z</time>
      </trkpt>
      <trkpt lat="44.4359" lon="1.32068">
        <ele>300.784</ele>
        <time>2014-04-01T11:48:36Z</time>
      </trkpt>
      <trkpt lat="44.436" lon="1.32072">
        <ele>302.274</ele>
        <time>2014-04-01T11:48:43Z</time>
      </trkpt>
      <trkpt lat="44.43615" lon="1.32074">
        <ele>303.354</ele>
        <time>2014-04-01T11:48:50Z</time>
      </trkpt>
      <trkpt lat="44.43623" lon="1.32068">
        <ele>302.332</ele>
        <time>2014-04-01T11:48:53Z</time>
      </trkpt>
      <trkpt lat="44.4364" lon="1.32062">
        <ele>301.052</ele>
        <time>2014-04-01T11:48:57Z</time>
      </trkpt>
      <trkpt lat="44.43655" lon="1.32063">
        <ele>301.004</ele>
        <time>2014-04-01T11:49:01Z</time>
      </trkpt>
      <trkpt lat="44.4367" lon="1.32062">
        <ele>302.665</ele>
        <time>2014-04-01T11:49:07Z</time>
      </trkpt>
      <trkpt lat="44.43683" lon="1.32046">
        <ele>302.304</ele>
        <time>2014-04-01T11:49:12Z</time>
      </trkpt>
      <trkpt lat="44.43689" lon="1.32038">
        <ele>302.043</ele>
        <time>2014-04-01T11:49:14Z</time>
      </trkpt>
      <trkpt lat="44.43695" lon="1.32014">
        <ele>301.043</ele>
        <time>2014-04-01T11:49:19Z</time>
      </trkpt>
      <trkpt lat="44.43695" lon="1.32014">
        <ele>301.038</ele>
        <time>2014-04-01T11:49:20Z</time>
      </trkpt>
    </trkseg>
  </trk>
</gpx>